createdAt,value
2022-10-02T00:02:42.436Z,2.30
2022-10-02T00:05:29.752Z,2.30
2022-10-02T00:08:03.401Z,1.90
2022-10-02T00:10:42.664Z,1.90
2022-10-02T00:13:15.951Z,1.80
2022-10-02T00:15:43.455Z,1.60
2022-10-02T00:18:18.494Z,1.50
2022-10-02T00:21:20.468Z,2.00
2022-10-02T00:23:54.068Z,1.80
2022-10-02T00:26:35.000Z,2.20
2022-10-02T00:29:23.559Z,5.20
2022-10-02T00:31:59.327Z,4.10
2022-10-02T00:35:14.521Z,3.50
2022-10-02T00:38:18.769Z,2.60
2022-10-02T00:41:26.063Z,3.80
2022-10-02T00:44:20.667Z,2.90
2022-10-02T00:47:08.617Z,3.10
2022-10-02T00:49:48.011Z,2.60
2022-10-02T00:52:29.847Z,2.80
2022-10-02T00:55:08.547Z,2.90
2022-10-02T00:58:03.104Z,3.00
2022-10-02T01:00:29.976Z,2.30
2022-10-02T01:03:05.768Z,2.10
2022-10-02T01:05:33.897Z,2.40
2022-10-02T01:08:01.296Z,2.40
2022-10-02T01:10:28.762Z,2.40
2022-10-02T01:12:57.046Z,2.50
2022-10-02T01:15:31.915Z,2.50
2022-10-02T01:17:58.869Z,2.40
2022-10-02T01:20:37.943Z,2.20
2022-10-02T01:23:42.390Z,2.40
2022-10-02T01:26:09.062Z,2.20
2022-10-02T01:28:35.814Z,2.10
2022-10-02T01:31:08.569Z,2.00
2022-10-02T01:33:38.120Z,1.80
2022-10-02T01:36:05.735Z,2.10
2022-10-02T01:38:32.273Z,2.00
2022-10-02T01:40:58.745Z,1.90
2022-10-02T01:43:35.691Z,1.90
2022-10-02T01:46:21.072Z,2.00
2022-10-02T01:48:55.675Z,1.80
2022-10-02T01:51:28.082Z,1.50
2022-10-02T01:54:20.729Z,1.60
2022-10-02T01:56:53.177Z,1.90
2022-10-02T01:59:40.445Z,1.90
2022-10-02T02:02:31.512Z,1.70
2022-10-02T02:05:04.801Z,1.80
2022-10-02T02:07:39.279Z,1.80
2022-10-02T02:10:26.548Z,1.70
2022-10-02T02:13:02.667Z,1.70
2022-10-02T02:15:43.308Z,1.60
2022-10-02T02:18:17.460Z,1.40
2022-10-02T02:20:48.281Z,1.40
2022-10-02T02:23:20.368Z,1.40
2022-10-02T02:25:51.397Z,1.50
2022-10-02T02:28:21.311Z,1.50
2022-10-02T02:30:51.830Z,1.60
2022-10-02T02:33:24.757Z,1.40
2022-10-02T02:35:58.840Z,1.30
2022-10-02T02:38:32.734Z,1.50
2022-10-02T02:41:12.340Z,1.20
2022-10-02T02:43:54.245Z,1.20
2022-10-02T02:46:39.444Z,1.80
2022-10-02T02:49:11.799Z,1.60
2022-10-02T02:51:42.125Z,1.60
2022-10-02T02:54:37.803Z,1.60
2022-10-02T02:57:07.558Z,1.30
2022-10-02T02:59:36.227Z,1.40
2022-10-02T03:02:02.964Z,1.30
2022-10-02T03:04:29.532Z,1.50
2022-10-02T03:07:01.417Z,1.60
2022-10-02T03:09:30.663Z,1.50
2022-10-02T03:12:16.607Z,1.60
2022-10-02T03:14:58.514Z,1.60
2022-10-02T03:17:44.546Z,1.60
2022-10-02T03:20:34.495Z,1.50
2022-10-02T03:23:28.484Z,1.50
2022-10-02T03:26:08.840Z,1.40
2022-10-02T03:28:56.001Z,1.60
2022-10-02T03:31:27.868Z,1.60
2022-10-02T03:33:55.593Z,1.60
2022-10-02T03:36:22.893Z,1.30
2022-10-02T03:39:12.530Z,1.50
2022-10-02T03:41:38.589Z,1.40
2022-10-02T03:44:05.102Z,1.60
2022-10-02T03:46:31.659Z,1.30
2022-10-02T03:48:58.214Z,1.50
2022-10-02T03:51:24.816Z,1.80
2022-10-02T03:53:52.282Z,1.50
2022-10-02T03:56:24.695Z,1.30
2022-10-02T03:58:55.027Z,1.60
2022-10-02T04:01:37.267Z,1.70
2022-10-02T04:04:15.024Z,1.80
2022-10-02T04:06:47.272Z,1.60
2022-10-02T04:09:21.593Z,2.00
2022-10-02T04:11:55.302Z,1.70
2022-10-02T04:14:30.693Z,1.50
2022-10-02T04:17:04.045Z,1.60
2022-10-02T04:19:47.501Z,1.70
2022-10-02T04:22:39.671Z,1.80
2022-10-02T04:25:32.615Z,1.70
2022-10-02T04:28:05.579Z,1.70
2022-10-02T04:30:32.221Z,1.50
2022-10-02T04:33:10.637Z,1.80
2022-10-02T04:35:56.363Z,1.60
2022-10-02T04:38:31.657Z,1.50
2022-10-02T04:41:10.409Z,2.00
2022-10-02T04:43:59.033Z,1.70
2022-10-02T04:46:37.682Z,1.50
2022-10-02T04:49:26.374Z,1.30
2022-10-02T04:52:09.533Z,1.60
2022-10-02T04:54:48.418Z,1.70
2022-10-02T04:57:33.905Z,1.30
2022-10-02T05:00:21.804Z,1.30
2022-10-02T05:03:26.177Z,1.30
2022-10-02T05:06:38.841Z,1.10
2022-10-02T05:09:48.203Z,1.20
2022-10-02T05:12:24.128Z,1.20
2022-10-02T05:14:56.288Z,1.10
2022-10-02T05:17:22.728Z,1.60
2022-10-02T05:20:06.867Z,1.60
2022-10-02T05:22:58.405Z,1.50
2022-10-02T05:25:36.738Z,1.30
2022-10-02T05:28:12.256Z,1.60
2022-10-02T05:31:18.157Z,1.40
2022-10-02T05:33:53.787Z,1.50
2022-10-02T05:36:32.520Z,1.60
2022-10-02T05:39:37.670Z,1.10
2022-10-02T05:42:14.755Z,1.40
2022-10-02T05:44:50.750Z,1.20
2022-10-02T05:47:28.575Z,1.50
2022-10-02T05:50:16.872Z,1.40
2022-10-02T05:53:05.289Z,1.70
2022-10-02T05:55:38.262Z,1.30
2022-10-02T05:58:41.631Z,1.30
2022-10-02T06:01:15.583Z,1.90
2022-10-02T06:03:47.984Z,1.30
2022-10-02T06:06:31.575Z,1.20
2022-10-02T06:09:04.409Z,1.20
2022-10-02T06:11:41.352Z,1.10
2022-10-02T06:14:19.701Z,2.00
2022-10-02T06:16:54.114Z,1.40
2022-10-02T06:19:32.408Z,1.40
2022-10-02T06:22:06.427Z,1.40
2022-10-02T06:24:47.356Z,1.60
2022-10-02T06:27:48.956Z,1.70
2022-10-02T06:30:18.065Z,1.40
2022-10-02T06:33:22.543Z,1.20
2022-10-02T06:36:04.419Z,1.30
2022-10-02T06:38:53.566Z,1.50
2022-10-02T06:41:47.188Z,2.00
2022-10-02T06:44:35.391Z,2.10
2022-10-02T06:47:50.474Z,2.50
2022-10-02T06:50:26.128Z,1.50
2022-10-02T06:53:00.246Z,1.50
2022-10-02T06:55:40.614Z,1.10
2022-10-02T06:58:25.794Z,1.60
2022-10-02T07:01:02.647Z,1.70
2022-10-02T07:03:51.643Z,1.50
2022-10-02T07:06:23.820Z,2.00
2022-10-02T07:09:33.859Z,1.90
2022-10-02T07:12:15.170Z,1.40
2022-10-02T07:17:45.161Z,1.80
2022-10-02T07:20:59.685Z,1.50
2022-10-02T07:23:43.867Z,1.60
2022-10-02T07:26:54.312Z,1.50
2022-10-02T07:29:32.317Z,1.40
2022-10-02T07:32:41.458Z,1.40
2022-10-02T07:35:19.880Z,1.10
2022-10-02T07:38:05.269Z,0.80
2022-10-02T07:40:34.883Z,1.50
2022-10-02T07:43:19.351Z,1.70
2022-10-02T07:46:00.191Z,1.30
2022-10-02T07:49:14.959Z,1.30
2022-10-02T07:52:01.098Z,0.90
2022-10-02T07:54:49.142Z,0.80
2022-10-02T07:57:46.735Z,1.40
2022-10-02T08:00:16.323Z,1.20
2022-10-02T08:03:00.237Z,1.30
2022-10-02T08:05:49.029Z,0.80
2022-10-02T08:08:38.411Z,1.00
2022-10-02T08:11:13.627Z,1.20
2022-10-02T08:13:51.453Z,1.20
2022-10-02T08:16:20.572Z,1.40
2022-10-02T08:19:02.660Z,1.10
2022-10-02T08:21:32.879Z,1.10
2022-10-02T08:24:23.619Z,1.30
2022-10-02T08:27:06.722Z,1.10
2022-10-02T08:29:33.264Z,1.40
2022-10-02T08:31:59.848Z,1.30
2022-10-02T08:34:28.287Z,1.10
2022-10-02T08:37:42.602Z,1.00
2022-10-02T08:40:46.878Z,1.20
2022-10-02T08:43:43.481Z,1.60
2022-10-02T08:46:21.944Z,1.70
2022-10-02T08:49:15.924Z,1.50
2022-10-02T08:52:05.814Z,1.20
2022-10-02T08:55:09.428Z,1.10
2022-10-02T08:58:13.104Z,0.80
2022-10-02T09:00:58.584Z,1.00
2022-10-02T09:03:49.541Z,1.00
2022-10-02T09:06:38.978Z,1.20
2022-10-02T09:09:43.002Z,0.90
2022-10-02T09:12:28.309Z,1.40
2022-10-02T09:15:15.703Z,0.80
2022-10-02T09:17:42.181Z,1.40
2022-10-02T09:20:23.831Z,0.80
2022-10-02T09:23:20.745Z,1.30
2022-10-02T09:25:57.278Z,2.30
2022-10-02T09:28:39.099Z,1.20
2022-10-02T09:31:36.844Z,1.60
2022-10-02T09:34:34.750Z,1.80
2022-10-02T09:37:42.248Z,1.80
2022-10-02T09:40:28.966Z,1.20
2022-10-02T09:43:18.295Z,1.40
2022-10-02T09:46:03.563Z,0.90
2022-10-02T09:48:53.717Z,1.50
2022-10-02T09:51:45.244Z,1.40
2022-10-02T09:54:36.204Z,1.20
2022-10-02T09:57:38.204Z,0.90
2022-10-02T10:00:24.184Z,1.30
2022-10-02T10:03:12.725Z,1.00
2022-10-02T10:06:13.427Z,1.70
2022-10-02T10:08:46.404Z,1.30
2022-10-02T10:11:25.882Z,2.00
2022-10-02T10:14:23.729Z,1.00
2022-10-02T10:17:34.205Z,1.20
2022-10-02T10:20:18.108Z,1.10
2022-10-02T10:23:01.037Z,1.50
2022-10-02T10:25:58.756Z,1.00
2022-10-02T10:28:46.903Z,2.00
2022-10-02T10:32:00.554Z,1.30
2022-10-02T10:34:49.005Z,1.00
2022-10-02T10:37:36.698Z,0.90
2022-10-02T10:40:26.841Z,1.60
2022-10-02T10:43:27.567Z,1.00
2022-10-02T10:46:12.746Z,1.20
2022-10-02T10:49:07.773Z,1.20
2022-10-02T10:51:53.975Z,1.10
2022-10-02T10:54:51.315Z,1.00
2022-10-02T10:57:24.333Z,1.10
2022-10-02T11:00:10.772Z,1.10
2022-10-02T11:02:59.465Z,1.10
2022-10-02T11:06:04.760Z,1.40
2022-10-02T11:08:47.539Z,1.50
2022-10-02T11:11:31.535Z,1.10
2022-10-02T11:14:13.129Z,1.20
2022-10-02T11:17:01.483Z,1.60
2022-10-02T11:19:52.948Z,1.10
2022-10-02T11:22:29.276Z,1.10
2022-10-02T11:25:12.552Z,1.20
2022-10-02T11:28:03.804Z,1.40
2022-10-02T11:30:51.317Z,1.80
2022-10-02T11:33:32.273Z,1.60
2022-10-02T11:38:43.045Z,1.40
2022-10-02T11:41:36.989Z,1.10
2022-10-02T11:44:22.547Z,1.20
2022-10-02T11:47:07.596Z,1.20
2022-10-02T11:49:49.284Z,1.40
2022-10-02T11:52:48.238Z,1.40
2022-10-02T11:55:33.168Z,1.80
2022-10-02T11:58:13.657Z,1.80
2022-10-02T12:01:17.247Z,1.70
2022-10-02T12:03:55.651Z,1.10
2022-10-02T12:07:00.094Z,1.30
2022-10-02T12:09:52.333Z,1.30
2022-10-02T12:12:29.399Z,1.10
2022-10-02T12:15:19.021Z,1.20
2022-10-02T12:18:00.291Z,1.50
2022-10-02T12:20:45.774Z,1.30
2022-10-02T12:23:35.800Z,1.30
2022-10-02T12:26:30.668Z,1.30
2022-10-02T12:29:12.506Z,1.40
2022-10-02T12:31:55.735Z,1.60
2022-10-02T12:34:38.177Z,1.20
2022-10-02T12:37:12.540Z,0.90
2022-10-02T12:39:54.061Z,1.40
2022-10-02T12:42:46.574Z,1.50
2022-10-02T12:45:31.568Z,1.10
2022-10-02T12:48:17.140Z,1.30
2022-10-02T12:51:18.378Z,1.70
2022-10-02T12:54:21.187Z,1.00
2022-10-02T12:57:22.442Z,1.10
2022-10-02T13:00:01.360Z,1.40
2022-10-02T13:03:01.219Z,1.80
2022-10-02T13:05:34.699Z,1.60
2022-10-02T13:08:28.377Z,1.80
2022-10-02T13:11:00.961Z,1.20
2022-10-02T13:13:54.543Z,1.30
2022-10-02T13:16:45.628Z,1.20
2022-10-02T13:19:35.847Z,1.50
2022-10-02T13:22:43.893Z,1.50
2022-10-02T13:25:33.864Z,1.10
2022-10-02T13:28:15.614Z,1.10
2022-10-02T13:31:21.048Z,0.90
2022-10-02T13:34:16.178Z,1.20
2022-10-02T13:37:01.795Z,1.30
2022-10-02T13:39:34.086Z,1.40
2022-10-02T13:42:14.960Z,1.20
2022-10-02T13:45:01.669Z,1.60
2022-10-02T13:47:36.000Z,1.70
2022-10-02T13:50:18.016Z,2.30
2022-10-02T13:52:50.680Z,1.30
2022-10-02T13:55:21.212Z,1.10
2022-10-02T13:58:35.984Z,0.70
2022-10-02T14:01:07.758Z,1.10
2022-10-02T14:03:47.928Z,1.30
2022-10-02T14:06:27.244Z,1.00
2022-10-02T14:09:18.052Z,1.10
2022-10-02T14:12:09.222Z,1.30
2022-10-02T14:15:12.299Z,1.20
2022-10-02T14:18:10.858Z,0.80
2022-10-02T14:20:46.511Z,1.10
2022-10-02T14:23:31.647Z,0.90
2022-10-02T14:26:04.784Z,1.10
2022-10-02T14:28:56.211Z,1.60
2022-10-02T14:31:30.158Z,1.30
2022-10-02T14:34:15.203Z,1.30
2022-10-02T14:37:09.799Z,1.60
2022-10-02T14:39:41.733Z,1.50
2022-10-02T14:42:38.669Z,2.80
2022-10-02T14:45:17.364Z,2.40
2022-10-02T14:48:17.876Z,1.30
2022-10-02T14:51:01.678Z,1.70
2022-10-02T14:54:06.058Z,1.70
2022-10-02T14:56:53.126Z,1.70
2022-10-02T14:59:38.626Z,1.80
2022-10-02T15:02:29.377Z,1.70
2022-10-02T15:07:35.162Z,1.80
2022-10-02T15:10:14.390Z,2.00
2022-10-02T15:12:59.669Z,1.70
2022-10-02T15:15:46.742Z,1.60
2022-10-02T15:18:41.024Z,1.70
2022-10-02T15:21:07.396Z,1.50
2022-10-02T15:23:33.857Z,2.00
2022-10-02T15:26:15.792Z,2.00
2022-10-02T15:28:55.867Z,2.20
2022-10-02T15:31:28.523Z,2.60
2022-10-02T15:34:39.201Z,2.50
2022-10-02T15:37:11.447Z,3.50
2022-10-02T15:40:11.653Z,3.50
2022-10-02T15:42:54.024Z,3.00
2022-10-02T15:45:49.982Z,3.50
2022-10-02T15:48:34.777Z,3.20
2022-10-02T15:51:19.348Z,3.00
2022-10-02T15:54:10.165Z,2.70
2022-10-02T15:57:18.275Z,2.70
2022-10-02T15:59:56.716Z,2.10
2022-10-02T16:03:01.434Z,1.90
2022-10-02T16:05:43.031Z,1.90
2022-10-02T16:08:24.370Z,1.90
2022-10-02T16:11:26.704Z,2.70
2022-10-02T16:14:17.817Z,2.70
2022-10-02T16:17:13.202Z,2.30
2022-10-02T16:20:04.262Z,1.80
2022-10-02T16:23:04.997Z,2.20
2022-10-02T16:25:53.187Z,2.30
2022-10-02T16:29:06.412Z,3.80
2022-10-02T16:31:42.068Z,3.60
2022-10-02T16:34:35.202Z,3.80
2022-10-02T16:37:20.281Z,5.20
2022-10-02T16:39:56.650Z,6.90
2022-10-02T16:42:31.301Z,4.90
2022-10-02T16:45:22.599Z,5.00
2022-10-02T16:48:00.643Z,7.90
2022-10-02T16:51:07.598Z,6.90
2022-10-02T16:53:36.805Z,4.80
2022-10-02T16:56:32.522Z,4.50
2022-10-02T16:59:09.570Z,6.30
2022-10-02T17:02:05.930Z,7.00
2022-10-02T17:04:55.245Z,10.10
2022-10-02T17:07:48.478Z,13.30
2022-10-02T17:10:36.961Z,15.30
2022-10-02T17:13:10.100Z,15.10
2022-10-02T17:15:45.180Z,26.20
2022-10-02T17:18:17.762Z,27.80
2022-10-02T17:20:49.772Z,30.10
2022-10-02T17:23:48.252Z,22.60
2022-10-02T17:26:43.482Z,22.90
2022-10-02T17:29:12.937Z,18.40
2022-10-02T17:31:57.319Z,20.10
2022-10-02T17:34:33.404Z,22.10
2022-10-02T17:37:40.040Z,22.80
2022-10-02T17:40:27.982Z,26.10
2022-10-02T17:43:29.438Z,28.20
2022-10-02T17:46:23.623Z,18.90
2022-10-02T17:49:02.655Z,19.40
2022-10-02T17:54:50.220Z,28.30
2022-10-02T17:57:36.916Z,67.00
2022-10-02T18:00:18.839Z,34.60
2022-10-02T18:03:13.234Z,48.10
2022-10-02T18:05:56.773Z,23.10
2022-10-02T18:08:41.542Z,17.80
2022-10-02T18:11:23.336Z,15.90
2022-10-02T18:14:10.253Z,15.50
2022-10-02T18:17:08.947Z,16.20
2022-10-02T18:19:59.555Z,13.80
2022-10-02T18:22:50.259Z,14.60
2022-10-02T18:25:36.660Z,14.80
2022-10-02T18:28:21.303Z,11.90
2022-10-02T18:30:54.929Z,13.90
2022-10-02T18:33:36.932Z,15.70
2022-10-02T18:36:25.095Z,17.50
2022-10-02T18:39:07.827Z,16.50
2022-10-02T18:42:10.057Z,13.90
2022-10-02T18:45:13.795Z,20.40
2022-10-02T18:47:56.203Z,20.40
2022-10-02T18:50:54.898Z,31.70
2022-10-02T18:53:33.632Z,23.70
2022-10-02T18:56:08.909Z,23.10
2022-10-02T18:59:20.362Z,21.70
2022-10-02T19:02:25.113Z,21.80
2022-10-02T19:05:12.328Z,22.60
2022-10-02T19:07:45.657Z,20.90
2022-10-02T19:10:25.962Z,21.10
2022-10-02T19:12:56.867Z,17.30
2022-10-02T19:15:27.874Z,17.40
2022-10-02T19:18:20.425Z,18.10
2022-10-02T19:20:49.860Z,19.00
2022-10-02T19:23:30.441Z,19.90
2022-10-02T19:26:02.568Z,18.60
2022-10-02T19:28:31.732Z,19.50
2022-10-02T19:31:03.545Z,19.40
2022-10-02T19:33:42.166Z,23.90
2022-10-02T19:36:16.070Z,22.50
2022-10-02T19:38:49.705Z,22.10
2022-10-02T19:41:17.346Z,22.00
2022-10-02T19:44:08.035Z,23.10
2022-10-02T19:46:44.932Z,25.60
2022-10-02T19:49:22.293Z,22.60
2022-10-02T19:51:49.406Z,23.50
2022-10-02T19:54:20.122Z,23.80
2022-10-02T19:56:47.446Z,23.40
2022-10-02T19:59:23.846Z,21.50
2022-10-02T20:01:53.373Z,23.70
2022-10-02T20:04:26.145Z,23.60
2022-10-02T20:06:57.669Z,21.70
2022-10-02T20:09:26.733Z,23.10
2022-10-02T20:12:01.300Z,23.80
2022-10-02T20:14:37.572Z,39.80
2022-10-02T20:17:04.887Z,57.30
2022-10-02T20:19:36.406Z,36.10
2022-10-02T20:22:15.538Z,43.90
2022-10-02T20:25:07.714Z,54.40
2022-10-02T20:27:46.099Z,37.30
2022-10-02T20:30:16.746Z,32.80
2022-10-02T20:33:10.204Z,32.70
2022-10-02T20:35:46.924Z,26.50
2022-10-02T20:38:29.088Z,24.00
2022-10-02T20:40:58.218Z,18.80
2022-10-02T20:43:43.016Z,15.20
2022-10-02T20:46:33.816Z,10.30
2022-10-02T20:49:10.902Z,8.30
2022-10-02T20:51:55.779Z,6.00
2022-10-02T20:54:34.852Z,5.30
2022-10-02T20:57:38.153Z,4.10
2022-10-02T21:00:10.072Z,3.40
2022-10-02T21:03:01.221Z,3.00
2022-10-02T21:05:27.823Z,2.40
2022-10-02T21:07:57.080Z,2.30
2022-10-02T21:10:33.865Z,2.30
2022-10-02T21:13:09.611Z,2.00
2022-10-02T21:16:05.795Z,1.80
2022-10-02T21:19:10.099Z,1.90
2022-10-02T21:22:01.296Z,1.70
2022-10-02T21:24:38.588Z,1.80
2022-10-02T21:27:24.970Z,2.10
2022-10-02T21:30:00.273Z,2.20
2022-10-02T21:32:53.613Z,2.50
2022-10-02T21:35:44.480Z,1.90
2022-10-02T21:38:40.042Z,1.80
2022-10-02T21:41:22.861Z,2.20
2022-10-02T21:44:10.303Z,1.80
2022-10-02T21:47:01.603Z,2.30
2022-10-02T21:49:43.619Z,1.70
2022-10-02T21:52:28.304Z,2.00
2022-10-02T21:55:09.880Z,1.60
2022-10-02T21:57:58.235Z,1.60
2022-10-02T22:00:29.482Z,1.00
2022-10-02T22:05:59.177Z,1.50
2022-10-02T22:08:47.010Z,1.50
2022-10-02T22:11:47.095Z,1.80
2022-10-02T22:14:19.561Z,2.80
2022-10-02T22:17:17.752Z,1.60
2022-10-02T22:19:47.060Z,1.20
2022-10-02T22:22:28.957Z,1.40
2022-10-02T22:25:01.204Z,1.30
2022-10-02T22:27:34.021Z,1.60
2022-10-02T22:30:00.678Z,1.80
2022-10-02T22:32:38.060Z,1.70
2022-10-02T22:35:21.495Z,2.50
2022-10-02T22:38:26.541Z,1.60
2022-10-02T22:40:58.606Z,1.40
2022-10-02T22:43:35.077Z,1.20
2022-10-02T22:46:24.731Z,1.80
2022-10-02T22:49:03.474Z,1.70
2022-10-02T22:51:45.384Z,1.20
2022-10-02T22:54:34.965Z,1.40
2022-10-02T22:57:14.021Z,2.10
2022-10-02T23:00:04.397Z,2.10
2022-10-02T23:02:35.514Z,1.30
2022-10-02T23:07:47.482Z,1.80
2022-10-02T23:10:54.864Z,1.80
2022-10-02T23:13:34.115Z,1.80
2022-10-02T23:16:10.328Z,1.80
2022-10-02T23:18:50.475Z,2.10
2022-10-02T23:21:29.359Z,2.20
2022-10-02T23:24:25.186Z,1.80
2022-10-02T23:26:54.075Z,2.60
2022-10-02T23:30:02.804Z,1.60
2022-10-02T23:32:38.170Z,1.80
2022-10-02T23:35:26.298Z,1.50
2022-10-02T23:38:04.501Z,1.80
2022-10-02T23:40:55.863Z,1.50
2022-10-02T23:43:30.033Z,1.70
2022-10-02T23:46:03.898Z,2.00
2022-10-02T23:48:31.629Z,1.50
2022-10-02T23:51:15.804Z,2.00
2022-10-02T23:54:00.756Z,1.80
2022-10-02T23:57:38.160Z,1.70
